createdAt,value
2023-02-18T00:00:05.120Z,6.11
2023-02-18T00:02:52.655Z,6.13
2023-02-18T00:05:38.338Z,5.98
2023-02-18T00:08:23.998Z,6.10
2023-02-18T00:11:10.166Z,5.99
2023-02-18T00:13:58.173Z,5.83
2023-02-18T00:16:45.082Z,5.88
2023-02-18T00:19:30.781Z,5.97
2023-02-18T00:22:16.343Z,6.02
2023-02-18T00:25:01.823Z,5.87
2023-02-18T00:27:47.391Z,5.98
2023-02-18T00:30:33.095Z,5.99
2023-02-18T00:33:18.884Z,5.97
2023-02-18T00:36:07.412Z,5.92
2023-02-18T00:38:56.173Z,5.90
2023-02-18T00:41:42.519Z,5.98
2023-02-18T00:44:27.909Z,5.91
2023-02-18T00:47:13.570Z,5.81
2023-02-18T00:49:59.216Z,5.88
2023-02-18T00:52:44.720Z,5.86
2023-02-18T00:55:30.633Z,5.91
2023-02-18T00:58:16.351Z,5.80
2023-02-18T01:01:02.252Z,5.75
2023-02-18T01:03:48.141Z,5.78
2023-02-18T01:06:33.803Z,5.72
2023-02-18T01:09:19.375Z,5.72
2023-02-18T01:12:05.132Z,5.88
2023-02-18T01:14:50.517Z,5.88
2023-02-18T01:17:36.088Z,5.73
2023-02-18T01:20:21.596Z,5.69
2023-02-18T01:23:07.341Z,5.71
2023-02-18T01:25:52.934Z,5.85
2023-02-18T01:28:40.514Z,5.87
2023-02-18T01:31:26.330Z,5.73
2023-02-18T01:34:12.054Z,5.78
2023-02-18T01:36:57.705Z,5.71
2023-02-18T01:39:43.467Z,5.81
2023-02-18T01:42:30.023Z,5.70
2023-02-18T01:45:33.446Z,5.75
2023-02-18T01:48:23.457Z,5.62
2023-02-18T01:51:23.645Z,5.65
2023-02-18T01:54:14.699Z,5.72
2023-02-18T01:57:09.316Z,5.70
2023-02-18T01:59:57.694Z,5.79
2023-02-18T02:02:46.479Z,5.89
2023-02-18T02:05:33.693Z,5.92
2023-02-18T02:08:19.090Z,6.03
2023-02-18T02:11:11.418Z,6.01
2023-02-18T02:14:19.027Z,5.93
2023-02-18T02:17:11.222Z,6.08
2023-02-18T02:20:31.041Z,6.08
2023-02-18T02:23:41.321Z,6.06
2023-02-18T02:26:38.248Z,6.16
2023-02-18T02:29:32.774Z,5.98
2023-02-18T02:32:55.738Z,5.98
2023-02-18T02:35:59.944Z,6.04
2023-02-18T02:39:04.851Z,6.06
2023-02-18T02:41:59.471Z,6.23
2023-02-18T02:45:01.817Z,6.08
2023-02-18T02:47:54.783Z,6.30
2023-02-18T02:50:46.823Z,6.29
2023-02-18T02:53:34.828Z,6.37
2023-02-18T02:56:25.189Z,6.55
2023-02-18T02:59:18.324Z,6.46
2023-02-18T03:02:26.590Z,6.45
2023-02-18T03:05:30.282Z,6.48
2023-02-18T03:08:40.706Z,6.66
2023-02-18T03:11:33.381Z,6.68
2023-02-18T03:14:30.563Z,6.75
2023-02-18T03:17:20.835Z,6.64
2023-02-18T03:20:18.317Z,6.71
2023-02-18T03:23:10.650Z,6.73
2023-02-18T03:25:58.234Z,6.78
2023-02-18T03:28:46.172Z,6.73
2023-02-18T03:31:35.493Z,6.76
2023-02-18T03:34:28.376Z,6.73
2023-02-18T03:37:14.948Z,6.76
2023-02-18T03:40:01.906Z,6.77
2023-02-18T03:42:47.303Z,6.78
2023-02-18T03:45:32.826Z,6.81
2023-02-18T03:48:18.589Z,6.87
2023-02-18T03:51:04.213Z,6.83
2023-02-18T03:53:49.870Z,6.92
2023-02-18T03:56:36.946Z,6.96
2023-02-18T03:59:22.545Z,6.99
2023-02-18T04:02:07.722Z,7.15
2023-02-18T04:04:53.491Z,7.07
2023-02-18T04:07:39.125Z,7.00
2023-02-18T04:10:24.447Z,7.10
2023-02-18T04:13:09.829Z,7.01
2023-02-18T04:15:55.435Z,7.09
2023-02-18T04:18:41.014Z,7.06
2023-02-18T04:21:26.616Z,7.12
2023-02-18T04:24:11.998Z,7.14
2023-02-18T04:26:57.715Z,7.15
2023-02-18T04:29:43.225Z,7.23
2023-02-18T04:32:29.154Z,7.19
2023-02-18T04:35:15.155Z,7.28
2023-02-18T04:38:00.417Z,7.29
2023-02-18T04:40:45.943Z,7.27
2023-02-18T04:43:31.315Z,7.42
2023-02-18T04:46:16.673Z,7.37
2023-02-18T04:49:02.431Z,7.29
2023-02-18T04:51:48.115Z,7.26
2023-02-18T04:54:33.651Z,7.22
2023-02-18T04:57:19.376Z,7.12
2023-02-18T05:00:07.019Z,7.19
2023-02-18T05:02:52.346Z,7.10
2023-02-18T05:05:38.076Z,7.10
2023-02-18T05:08:23.870Z,7.20
2023-02-18T05:11:09.919Z,7.14
2023-02-18T05:13:55.412Z,7.19
2023-02-18T05:16:40.650Z,7.19
2023-02-18T05:19:26.344Z,7.26
2023-02-18T05:22:11.693Z,7.24
2023-02-18T05:24:57.117Z,7.26
2023-02-18T05:27:42.878Z,7.24
2023-02-18T05:30:28.294Z,7.22
2023-02-18T05:33:13.932Z,7.22
2023-02-18T05:35:59.628Z,7.23
2023-02-18T05:38:45.190Z,7.20
2023-02-18T05:41:30.928Z,7.20
2023-02-18T05:44:31.339Z,7.26
2023-02-18T05:47:16.896Z,7.39
2023-02-18T05:50:02.827Z,7.37
2023-02-18T05:52:48.085Z,7.30
2023-02-18T05:55:37.708Z,7.42
2023-02-18T05:58:23.101Z,7.39
2023-02-18T06:01:08.670Z,7.41
2023-02-18T06:03:54.159Z,7.36
2023-02-18T06:06:40.035Z,7.39
2023-02-18T06:09:25.360Z,7.44
2023-02-18T06:12:10.797Z,7.37
2023-02-18T06:14:56.170Z,7.27
2023-02-18T06:17:41.941Z,7.28
2023-02-18T06:20:27.281Z,7.26
2023-02-18T06:23:12.740Z,7.28
2023-02-18T06:25:58.376Z,7.26
2023-02-18T06:28:43.692Z,7.23
2023-02-18T06:31:29.278Z,7.32
2023-02-18T06:34:15.060Z,7.34
2023-02-18T06:37:01.472Z,7.21
2023-02-18T06:39:47.251Z,7.26
2023-02-18T06:42:32.716Z,7.28
2023-02-18T06:45:18.043Z,7.39
2023-02-18T06:48:03.603Z,7.35
2023-02-18T06:50:49.778Z,7.36
2023-02-18T06:53:35.235Z,7.27
2023-02-18T06:56:20.838Z,7.39
2023-02-18T06:59:06.393Z,7.42
2023-02-18T07:01:51.837Z,7.36
2023-02-18T07:04:37.283Z,7.46
2023-02-18T07:07:22.933Z,7.50
2023-02-18T07:10:08.622Z,7.46
2023-02-18T07:12:54.032Z,7.45
2023-02-18T07:15:40.054Z,7.50
2023-02-18T07:18:25.429Z,7.46
2023-02-18T07:21:11.251Z,7.52
2023-02-18T07:23:56.596Z,7.54
2023-02-18T07:26:42.112Z,7.44
2023-02-18T07:29:27.680Z,7.44
2023-02-18T07:32:13.961Z,7.54
2023-02-18T07:34:59.583Z,7.53
2023-02-18T07:37:49.143Z,7.59
2023-02-18T07:40:34.474Z,7.57
2023-02-18T07:43:20.843Z,7.67
2023-02-18T07:46:07.142Z,7.82
2023-02-18T07:48:52.837Z,7.66
2023-02-18T07:51:40.211Z,7.78
2023-02-18T07:54:26.192Z,7.84
2023-02-18T07:57:11.516Z,7.77
2023-02-18T07:59:57.239Z,7.79
2023-02-18T08:02:42.524Z,7.91
2023-02-18T08:05:28.256Z,7.90
2023-02-18T08:08:15.433Z,7.88
2023-02-18T08:11:13.384Z,7.99
2023-02-18T08:14:03.934Z,7.99
2023-02-18T08:16:49.715Z,8.05
2023-02-18T08:19:35.287Z,7.97
2023-02-18T08:22:20.849Z,7.90
2023-02-18T08:25:06.888Z,7.82
2023-02-18T08:27:52.605Z,7.92
2023-02-18T08:30:38.374Z,7.89
2023-02-18T08:33:25.211Z,7.91
2023-02-18T08:36:11.015Z,7.96
2023-02-18T08:38:57.538Z,8.06
2023-02-18T08:41:42.894Z,8.02
2023-02-18T08:44:28.585Z,7.94
2023-02-18T08:48:17.200Z,7.90
2023-02-18T08:50:20.851Z,7.94
2023-02-18T08:53:06.196Z,7.86
2023-02-18T08:55:51.922Z,7.93
2023-02-18T08:58:37.975Z,8.00
2023-02-18T09:01:23.732Z,7.94
2023-02-18T09:04:08.988Z,7.73
2023-02-18T09:06:54.446Z,7.92
2023-02-18T09:09:39.832Z,7.95
2023-02-18T09:12:25.475Z,7.94
2023-02-18T09:15:11.222Z,8.14
2023-02-18T09:17:56.532Z,8.18
2023-02-18T09:20:42.355Z,8.16
2023-02-18T09:23:29.127Z,8.06
2023-02-18T09:26:16.890Z,8.11
2023-02-18T09:29:02.492Z,8.06
2023-02-18T09:31:47.805Z,8.04
2023-02-18T09:34:34.292Z,8.21
2023-02-18T09:37:19.981Z,8.32
2023-02-18T09:40:06.064Z,8.29
2023-02-18T09:42:51.577Z,8.31
2023-02-18T09:45:38.210Z,8.29
2023-02-18T09:48:32.990Z,8.40
2023-02-18T09:51:19.306Z,8.37
2023-02-18T09:54:05.027Z,8.32
2023-02-18T09:56:51.811Z,8.51
2023-02-18T09:59:37.323Z,8.57
2023-02-18T10:02:24.292Z,8.59
2023-02-18T10:05:15.316Z,8.63
2023-02-18T10:08:19.631Z,8.76
2023-02-18T10:11:12.304Z,9.02
2023-02-18T10:14:00.954Z,9.11
2023-02-18T10:16:49.154Z,9.34
2023-02-18T10:19:38.512Z,9.50
2023-02-18T10:22:25.814Z,9.71
2023-02-18T10:25:18.903Z,9.86
2023-02-18T10:28:04.404Z,10.13
2023-02-18T10:30:58.440Z,10.09
2023-02-18T10:34:03.932Z,9.98
2023-02-18T10:37:18.129Z,10.21
2023-02-18T10:40:25.324Z,10.45
2023-02-18T10:43:29.366Z,10.62
2023-02-18T10:46:27.874Z,10.67
2023-02-18T10:49:55.413Z,10.90
2023-02-18T10:52:47.884Z,11.03
2023-02-18T10:55:36.244Z,10.86
2023-02-18T10:58:34.626Z,10.93
2023-02-18T11:01:20.935Z,11.05
2023-02-18T11:04:18.031Z,11.18
2023-02-18T11:07:06.341Z,10.99
2023-02-18T11:09:57.670Z,11.33
2023-02-18T11:12:49.088Z,11.47
2023-02-18T11:15:35.831Z,11.42
2023-02-18T11:18:36.513Z,11.44
2023-02-18T11:21:26.558Z,11.63
2023-02-18T11:24:16.171Z,11.79
2023-02-18T11:27:01.585Z,11.84
2023-02-18T11:29:51.561Z,11.73
2023-02-18T11:32:37.567Z,11.62
2023-02-18T11:35:27.200Z,11.71
2023-02-18T11:38:26.154Z,11.51
2023-02-18T11:41:15.117Z,11.41
2023-02-18T11:44:02.169Z,11.33
2023-02-18T11:46:58.625Z,11.43
2023-02-18T11:49:58.912Z,11.51
2023-02-18T11:52:49.179Z,11.51
2023-02-18T11:55:34.882Z,11.42
2023-02-18T11:58:20.242Z,11.38
2023-02-18T12:01:12.955Z,11.32
2023-02-18T12:04:17.165Z,11.23
2023-02-18T12:07:05.400Z,11.42
2023-02-18T12:09:56.400Z,11.22
2023-02-18T12:12:48.118Z,11.21
2023-02-18T12:16:14.496Z,11.28
2023-02-18T12:19:46.009Z,11.34
2023-02-18T12:22:42.749Z,11.17
2023-02-18T12:25:37.557Z,11.17
2023-02-18T12:28:47.430Z,11.05
2023-02-18T12:31:47.851Z,11.14
2023-02-18T12:34:47.339Z,11.33
2023-02-18T12:37:50.860Z,11.28
2023-02-18T12:40:57.529Z,11.37
2023-02-18T12:43:58.374Z,11.38
2023-02-18T12:46:55.038Z,11.39
2023-02-18T12:50:17.281Z,11.35
2023-02-18T12:53:41.706Z,11.31
2023-02-18T12:56:39.032Z,11.24
2023-02-18T12:59:45.357Z,11.35
2023-02-18T13:02:45.550Z,11.51
2023-02-18T13:05:55.258Z,11.45
2023-02-18T13:09:07.015Z,11.35
2023-02-18T13:12:17.891Z,11.29
2023-02-18T13:15:13.507Z,11.22
2023-02-18T13:18:03.262Z,11.28
2023-02-18T13:20:56.254Z,11.27
2023-02-18T13:23:53.579Z,11.26
2023-02-18T13:26:41.667Z,11.38
2023-02-18T13:29:44.698Z,11.35
2023-02-18T13:33:01.274Z,11.26
2023-02-18T13:36:12.473Z,11.12
2023-02-18T13:39:11.369Z,11.14
2023-02-18T13:42:24.613Z,11.22
2023-02-18T13:45:33.302Z,11.14
2023-02-18T13:48:26.776Z,11.16
2023-02-18T13:51:14.246Z,11.07
2023-02-18T13:54:17.763Z,11.22
2023-02-18T13:57:25.783Z,11.18
2023-02-18T14:00:25.220Z,11.34
2023-02-18T14:03:42.848Z,11.52
2023-02-18T14:06:34.268Z,11.39
2023-02-18T14:09:25.597Z,11.37
2023-02-18T14:12:25.640Z,11.50
2023-02-18T14:15:19.885Z,11.58
2023-02-18T14:18:14.026Z,11.44
2023-02-18T14:21:05.535Z,11.44
2023-02-18T14:23:53.572Z,11.33
2023-02-18T14:26:48.420Z,11.31
2023-02-18T14:29:33.888Z,11.38
2023-02-18T14:32:21.025Z,11.11
2023-02-18T14:35:25.556Z,11.34
2023-02-18T14:38:33.642Z,11.25
2023-02-18T14:41:55.856Z,11.08
2023-02-18T14:45:03.066Z,11.04
2023-02-18T14:48:18.810Z,11.00
2023-02-18T14:51:05.566Z,10.94
2023-02-18T14:53:51.599Z,10.98
2023-02-18T14:56:53.260Z,10.99
2023-02-18T14:59:41.570Z,10.90
2023-02-18T15:02:31.022Z,10.85
2023-02-18T15:05:20.472Z,10.74
2023-02-18T15:08:15.420Z,10.82
2023-02-18T15:11:07.438Z,10.81
2023-02-18T15:13:53.189Z,10.80
2023-02-18T15:16:39.615Z,10.87
2023-02-18T15:19:28.733Z,10.98
2023-02-18T15:22:20.082Z,11.03
2023-02-18T15:25:06.420Z,10.84
2023-02-18T15:27:52.452Z,10.87
2023-02-18T15:30:39.076Z,10.68
2023-02-18T15:33:25.069Z,10.72
2023-02-18T15:36:14.702Z,10.74
2023-02-18T15:39:00.528Z,10.70
2023-02-18T15:41:47.077Z,10.62
2023-02-18T15:44:35.829Z,10.51
2023-02-18T15:47:22.097Z,10.48
2023-02-18T15:50:26.948Z,10.41
2023-02-18T15:53:16.333Z,10.24
2023-02-18T15:56:07.081Z,10.23
2023-02-18T15:59:07.589Z,10.05
2023-02-18T16:01:55.898Z,10.20
2023-02-18T16:04:45.697Z,10.14
2023-02-18T16:07:38.116Z,10.03
2023-02-18T16:10:33.163Z,10.14
2023-02-18T16:13:19.218Z,10.02
2023-02-18T16:16:05.800Z,10.01
2023-02-18T16:18:51.278Z,9.93
2023-02-18T16:21:39.790Z,9.94
2023-02-18T16:24:28.587Z,10.10
2023-02-18T16:27:16.673Z,9.93
2023-02-18T16:30:15.473Z,9.79
2023-02-18T16:33:01.391Z,9.85
2023-02-18T16:35:50.258Z,9.82
2023-02-18T16:38:36.416Z,9.63
2023-02-18T16:41:21.900Z,9.82
2023-02-18T16:44:13.039Z,9.77
2023-02-18T16:46:58.693Z,9.76
2023-02-18T16:49:49.314Z,9.77
2023-02-18T16:52:34.695Z,9.69
2023-02-18T16:55:23.230Z,9.68
2023-02-18T16:58:08.626Z,9.72
2023-02-18T17:00:54.378Z,9.85
2023-02-18T17:03:39.764Z,9.77
2023-02-18T17:06:25.456Z,9.64
2023-02-18T17:09:17.681Z,9.68
2023-02-18T17:12:03.485Z,9.60
2023-02-18T17:14:48.962Z,9.55
2023-02-18T17:17:34.598Z,9.48
2023-02-18T17:20:20.489Z,9.57
2023-02-18T17:23:05.857Z,9.55
2023-02-18T17:25:52.918Z,9.53
2023-02-18T17:28:38.445Z,9.47
2023-02-18T17:31:29.732Z,9.50
2023-02-18T17:34:26.489Z,9.43
2023-02-18T17:37:14.764Z,9.46
2023-02-18T17:40:00.092Z,9.34
2023-02-18T17:42:45.768Z,9.34
2023-02-18T17:45:36.930Z,9.40
2023-02-18T17:48:23.295Z,9.26
2023-02-18T17:51:22.766Z,9.35
2023-02-18T17:54:17.226Z,9.32
2023-02-18T17:57:02.885Z,9.24
2023-02-18T17:59:48.464Z,9.21
2023-02-18T18:02:33.794Z,9.09
2023-02-18T18:05:28.269Z,9.13
2023-02-18T18:08:14.130Z,9.13
2023-02-18T18:11:01.046Z,9.09
2023-02-18T18:13:46.623Z,8.91
2023-02-18T18:16:32.277Z,8.87
2023-02-18T18:19:17.661Z,8.73
2023-02-18T18:22:04.179Z,8.67
2023-02-18T18:24:50.203Z,8.56
2023-02-18T18:27:35.701Z,8.45
2023-02-18T18:30:29.985Z,8.39
2023-02-18T18:33:27.739Z,8.30
2023-02-18T18:36:13.377Z,8.36
2023-02-18T18:38:59.116Z,8.22
2023-02-18T18:41:44.571Z,8.19
2023-02-18T18:44:30.194Z,8.13
2023-02-18T18:47:15.977Z,8.26
2023-02-18T18:50:01.332Z,8.11
2023-02-18T18:52:47.573Z,8.19
2023-02-18T18:55:38.305Z,8.05
2023-02-18T18:58:26.904Z,8.15
2023-02-18T19:01:18.118Z,8.04
2023-02-18T19:04:03.854Z,8.18
2023-02-18T19:06:49.368Z,8.03
2023-02-18T19:09:34.869Z,7.91
2023-02-18T19:12:20.500Z,7.95
2023-02-18T19:15:06.159Z,7.90
2023-02-18T19:17:54.107Z,7.91
2023-02-18T19:20:41.431Z,7.95
2023-02-18T19:23:28.212Z,7.87
2023-02-18T19:26:15.792Z,7.89
2023-02-18T19:29:01.219Z,7.82
2023-02-18T19:31:46.591Z,7.96
2023-02-18T19:34:32.053Z,8.04
2023-02-18T19:37:17.403Z,7.96
2023-02-18T19:40:04.147Z,7.98
2023-02-18T19:42:50.053Z,7.93
2023-02-18T19:45:42.502Z,7.84
2023-02-18T19:48:28.558Z,7.88
2023-02-18T19:51:14.504Z,7.77
2023-02-18T19:54:00.382Z,7.83
2023-02-18T19:56:45.973Z,7.77
2023-02-18T19:59:31.542Z,7.80
2023-02-18T20:02:20.966Z,7.77
2023-02-18T20:05:07.390Z,7.90
2023-02-18T20:07:52.777Z,7.81
2023-02-18T20:10:38.273Z,7.70
2023-02-18T20:13:23.941Z,7.81
2023-02-18T20:16:09.880Z,7.77
2023-02-18T20:18:55.524Z,7.70
2023-02-18T20:21:40.954Z,7.78
2023-02-18T20:24:31.271Z,7.69
2023-02-18T20:27:17.440Z,7.75
2023-02-18T20:30:07.718Z,7.80
2023-02-18T20:32:53.516Z,7.84
2023-02-18T20:35:39.114Z,7.74
2023-02-18T20:38:24.767Z,7.55
2023-02-18T20:41:14.242Z,7.53
2023-02-18T20:44:01.866Z,7.49
2023-02-18T20:46:49.119Z,7.53
2023-02-18T20:49:35.457Z,7.61
2023-02-18T20:52:20.913Z,7.69
2023-02-18T20:55:06.493Z,7.48
2023-02-18T20:57:51.842Z,7.56
2023-02-18T21:00:37.287Z,7.53
2023-02-18T21:03:22.890Z,7.49
2023-02-18T21:06:15.408Z,7.53
2023-02-18T21:09:01.044Z,7.23
2023-02-18T21:11:46.571Z,7.21
2023-02-18T21:14:32.039Z,7.31
2023-02-18T21:17:17.405Z,7.27
2023-02-18T21:20:03.816Z,7.36
2023-02-18T21:22:49.520Z,7.32
2023-02-18T21:25:36.265Z,7.30
2023-02-18T21:28:21.592Z,7.23
2023-02-18T21:31:18.898Z,7.22
2023-02-18T21:34:05.948Z,7.20
2023-02-18T21:36:51.558Z,7.14
2023-02-18T21:39:36.971Z,7.01
2023-02-18T21:42:22.445Z,7.12
2023-02-18T21:45:08.781Z,7.04
2023-02-18T21:47:54.227Z,7.10
2023-02-18T21:50:39.494Z,7.04
2023-02-18T21:53:25.236Z,7.01
2023-02-18T21:56:11.675Z,6.96
2023-02-18T21:58:57.094Z,7.04
2023-02-18T22:01:42.778Z,7.08
2023-02-18T22:04:30.620Z,7.12
2023-02-18T22:07:17.468Z,7.13
2023-02-18T22:10:02.790Z,6.98
2023-02-18T22:12:48.485Z,6.98
2023-02-18T22:15:33.895Z,7.06
2023-02-18T22:18:19.727Z,6.89
2023-02-18T22:21:08.969Z,6.85
2023-02-18T22:23:54.924Z,6.83
2023-02-18T22:26:41.306Z,6.96
2023-02-18T22:29:27.988Z,6.87
2023-02-18T22:32:14.146Z,6.84
2023-02-18T22:34:59.876Z,6.97
2023-02-18T22:37:45.636Z,7.04
2023-02-18T22:40:31.123Z,6.96
2023-02-18T22:43:16.678Z,6.94
2023-02-18T22:46:06.540Z,6.91
2023-02-18T22:48:52.816Z,6.88
2023-02-18T22:51:40.556Z,6.77
2023-02-18T22:54:26.326Z,6.87
2023-02-18T22:57:11.657Z,6.82
2023-02-18T22:59:57.374Z,6.85
2023-02-18T23:02:42.852Z,6.72
2023-02-18T23:05:28.099Z,6.79
2023-02-18T23:08:13.776Z,6.61
2023-02-18T23:11:01.128Z,6.73
2023-02-18T23:14:06.242Z,6.82
2023-02-18T23:17:13.954Z,6.83
2023-02-18T23:19:59.453Z,6.73
2023-02-18T23:22:44.820Z,6.67
2023-02-18T23:25:32.175Z,6.75
2023-02-18T23:28:17.391Z,6.73
2023-02-18T23:31:03.203Z,6.74
2023-02-18T23:33:50.509Z,6.72
2023-02-18T23:36:36.616Z,6.83
2023-02-18T23:39:22.800Z,6.69
2023-02-18T23:42:08.354Z,6.69
2023-02-18T23:44:54.997Z,6.62
2023-02-18T23:47:40.435Z,6.66
2023-02-18T23:50:26.077Z,6.67
2023-02-18T23:53:11.498Z,6.61
2023-02-18T23:56:01.723Z,6.54
2023-02-18T23:58:54.690Z,6.69
